Time;durP1;ratioP1;P1;durP2;ratioP2;P2;SDS_P1;SDS_P2;PMS_P1;PMS_P2;Temp;Humidity;BMP_temperature;BMP_pressure;BME280_temperature;BME280_humidity;BME280_pressure;Samples;Min_cycle;Max_cycle;Signal;HPM_P1;HPM_P2
2023/08/16 00:01:39;;;;;;;8.70;7.80;;;13.70;99.90;;;;;;5073695;28;20055;-40
2023/08/16 00:04:05;;;;;;;8.90;7.35;;;13.70;99.90;;;;;;5074453;28;20354;-41
2023/08/16 00:06:31;;;;;;;10.57;8.30;;;13.70;99.90;;;;;;5056962;28;20043;-40
2023/08/16 00:08:58;;;;;;;11.10;7.85;;;13.70;99.90;;;;;;5075453;28;20052;-40
2023/08/16 00:11:25;;;;;;;9.05;7.78;;;13.60;99.90;;;;;;5075340;28;20561;-41
2023/08/16 00:13:51;;;;;;;8.23;6.88;;;13.70;99.90;;;;;;5057502;28;20056;-37
2023/08/16 00:16:16;;;;;;;8.10;7.32;;;13.70;99.90;;;;;;5055292;28;20044;-40
2023/08/16 00:18:42;;;;;;;8.75;7.90;;;13.70;99.90;;;;;;5053067;28;20041;-38
2023/08/16 00:21:08;;;;;;;10.50;9.40;;;13.60;99.90;;;;;;5054862;28;20058;-39
2023/08/16 00:23:33;;;;;;;9.20;8.13;;;13.60;99.90;;;;;;5052946;28;20044;-41
2023/08/16 00:25:59;;;;;;;12.27;10.23;;;13.60;99.90;;;;;;5056096;28;20430;-43
2023/08/16 00:28:24;;;;;;;10.07;9.07;;;13.60;99.90;;;;;;5053656;28;20441;-41
2023/08/16 00:30:53;;;;;;;8.73;7.78;;;13.60;99.90;;;;;;5063219;28;20043;-41
2023/08/16 00:33:20;;;;;;;8.63;7.78;;;13.60;99.90;;;;;;5075139;28;20048;-38
2023/08/16 00:35:46;;;;;;;10.55;8.15;;;13.60;99.90;;;;;;5073780;28;20318;-39
2023/08/16 00:38:12;;;;;;;4.13;3.72;;;13.60;99.90;;;;;;5072203;28;20054;-38
2023/08/16 00:40:37;;;;;;;4.65;3.13;;;13.50;99.90;;;;;;5063481;28;20036;-40
2023/08/16 00:43:03;;;;;;;4.22;2.10;;;13.50;99.90;;;;;;5075323;28;20522;-43
2023/08/16 00:45:29;;;;;;;1.90;1.50;;;13.40;99.90;;;;;;5075514;28;20047;-39
2023/08/16 00:47:56;;;;;;;2.40;2.20;;;13.40;99.90;;;;;;5074002;28;20048;-44
2023/08/16 00:50:23;;;;;;;3.13;2.30;;;13.30;99.90;;;;;;5074907;28;20044;-39
2023/08/16 00:52:51;;;;;;;2.10;1.90;;;13.30;99.90;;;;;;5051144;28;20495;-40
2023/08/16 00:55:17;;;;;;;3.38;2.40;;;13.30;99.90;;;;;;5074931;28;20048;-41
2023/08/16 00:57:43;;;;;;;4.10;2.22;;;13.30;99.90;;;;;;5074090;28;20094;-40
2023/08/16 01:00:10;;;;;;;2.63;1.70;;;13.20;99.90;;;;;;5074139;28;20782;-40
2023/08/16 01:02:36;;;;;;;3.00;1.60;;;13.20;99.90;;;;;;5068901;28;20052;-42
2023/08/16 01:05:02;;;;;;;1.73;1.55;;;13.10;99.90;;;;;;5064617;28;20040;-41
2023/08/16 01:07:28;;;;;;;3.53;2.10;;;13.10;99.90;;;;;;5073665;28;20468;-38
2023/08/16 01:09:54;;;;;;;1.98;1.65;;;13.00;99.90;;;;;;5073824;28;20059;-42
2023/08/16 01:12:37;;;;;;;3.85;1.80;;;13.00;99.90;;;;;;5074619;28;20083;-39
2023/08/16 01:15:26;;;;;;;2.13;1.48;;;13.00;99.90;;;;;;5057495;28;20033;-39
2023/08/16 01:17:53;;;;;;;2.10;1.25;;;12.90;99.90;;;;;;5041379;28;20075;-42
2023/08/16 01:20:21;;;;;;;2.33;1.48;;;12.90;99.90;;;;;;5068631;28;20040;-37
2023/08/16 01:22:52;;;;;;;2.55;1.80;;;12.90;99.90;;;;;;5060335;28;20487;-40
2023/08/16 01:25:44;;;;;;;2.80;2.05;;;12.80;99.90;;;;;;5053892;28;20056;-38
2023/08/16 01:28:10;;;;;;;2.55;2.13;;;12.80;99.90;;;;;;5067002;28;20477;-37
2023/08/16 01:30:38;;;;;;;3.20;1.88;;;12.80;99.90;;;;;;5067750;28;20036;-41
2023/08/16 01:33:14;;;;;;;4.88;1.88;;;12.80;99.90;;;;;;5068269;28;20055;-42
2023/08/16 01:35:40;;;;;;;3.13;2.28;;;12.80;99.90;;;;;;5074995;28;20032;-39
2023/08/16 01:38:12;;;;;;;2.88;1.55;;;12.80;99.90;;;;;;5072445;28;20114;-41
2023/08/16 01:40:44;;;;;;;3.30;1.77;;;12.80;99.90;;;;;;5052049;28;20553;-41
2023/08/16 01:43:13;;;;;;;2.53;2.13;;;12.70;99.90;;;;;;5053981;28;20055;-37
2023/08/16 01:45:38;;;;;;;1.98;1.58;;;12.70;99.90;;;;;;5064410;28;20395;-39
2023/08/16 01:48:05;;;;;;;5.03;1.65;;;12.70;99.90;;;;;;5072146;28;20497;-40
2023/08/16 01:50:31;;;;;;;2.78;2.35;;;12.70;99.90;;;;;;5072561;28;20044;-41
2023/08/16 01:52:57;;;;;;;2.97;1.58;;;12.70;99.90;;;;;;5045770;28;20934;-41
2023/08/16 01:55:23;;;;;;;2.40;1.70;;;12.60;99.90;;;;;;5053734;28;20511;-38
2023/08/16 01:57:48;;;;;;;3.80;1.35;;;12.70;99.90;;;;;;5052568;28;20045;-42
2023/08/16 02:00:15;;;;;;;3.88;1.65;;;12.60;99.90;;;;;;5051900;28;20072;-38
2023/08/16 02:02:41;;;;;;;4.07;1.92;;;12.60;99.90;;;;;;5053807;28;20337;-37
2023/08/16 02:05:07;;;;;;;3.10;1.80;;;12.60;99.90;;;;;;5053457;28;20045;-40
2023/08/16 02:07:32;;;;;;;2.22;1.85;;;12.50;99.90;;;;;;5052650;28;20045;-40
2023/08/16 02:09:58;;;;;;;3.25;2.40;;;12.50;99.90;;;;;;5051720;28;20044;-39
2023/08/16 02:12:24;;;;;;;2.97;2.13;;;12.50;99.90;;;;;;5053370;28;20053;-41
2023/08/16 02:14:50;;;;;;;4.28;3.22;;;12.50;99.90;;;;;;5051180;28;20338;-43
2023/08/16 02:17:15;;;;;;;2.90;2.42;;;12.50;99.90;;;;;;5052792;28;20040;-41
2023/08/16 02:19:41;;;;;;;4.43;2.28;;;12.50;99.90;;;;;;5062155;28;20156;-37
2023/08/16 02:22:07;;;;;;;4.05;2.40;;;12.50;99.90;;;;;;5065213;28;20044;-40
2023/08/16 02:24:32;;;;;;;4.75;3.28;;;12.40;99.90;;;;;;5053628;28;20048;-38
2023/08/16 02:26:58;;;;;;;5.15;4.00;;;12.50;99.90;;;;;;5070781;28;20376;-40
2023/08/16 02:29:24;;;;;;;8.55;4.85;;;12.40;99.90;;;;;;5075771;28;20141;-38
2023/08/16 02:31:49;;;;;;;5.22;4.72;;;12.40;99.90;;;;;;5062920;28;20501;-44
2023/08/16 02:34:15;;;;;;;4.70;3.60;;;12.40;99.90;;;;;;5077735;28;20101;-40
2023/08/16 02:36:41;;;;;;;6.45;3.80;;;12.40;99.90;;;;;;5075524;28;20056;-38
2023/08/16 02:39:08;;;;;;;5.00;3.90;;;12.40;99.90;;;;;;5066678;28;20056;-39
2023/08/16 02:41:34;;;;;;;4.78;3.75;;;12.40;99.90;;;;;;5072518;28;20047;-39
2023/08/16 02:44:00;;;;;;;5.75;3.70;;;12.40;99.90;;;;;;5077571;28;20156;-39
2023/08/16 02:46:25;;;;;;;4.10;3.22;;;12.40;99.90;;;;;;5075499;28;20143;-39
2023/08/16 02:48:51;;;;;;;6.93;3.83;;;12.50;99.90;;;;;;5076577;28;20295;-42
2023/08/16 02:51:16;;;;;;;5.53;3.97;;;12.40;99.90;;;;;;5071765;28;20617;-42
2023/08/16 02:53:42;;;;;;;4.30;2.92;;;12.40;99.90;;;;;;5047353;28;20052;-40
2023/08/16 02:56:08;;;;;;;3.42;2.67;;;12.40;99.90;;;;;;5074107;28;20413;-37
2023/08/16 02:58:33;;;;;;;3.17;2.88;;;12.30;99.90;;;;;;5077050;28;20040;-41
2023/08/16 03:00:59;;;;;;;4.32;3.50;;;12.30;99.90;;;;;;5077037;28;20104;-38
2023/08/16 03:03:25;;;;;;;5.03;3.67;;;12.20;99.90;;;;;;5078215;28;20131;-39
2023/08/16 03:05:50;;;;;;;2.88;2.53;;;12.20;99.90;;;;;;5076235;28;20036;-42
2023/08/16 03:08:16;;;;;;;2.83;2.53;;;12.10;99.90;;;;;;5076237;28;20550;-39
2023/08/16 03:10:41;;;;;;;3.83;2.80;;;12.10;99.90;;;;;;5076360;28;20051;-40
2023/08/16 03:13:08;;;;;;;3.40;3.08;;;12.10;99.90;;;;;;5076736;28;20051;-38
2023/08/16 03:15:34;;;;;;;4.60;3.05;;;12.00;99.90;;;;;;5057408;28;20128;-42
2023/08/16 03:18:00;;;;;;;4.10;3.47;;;12.00;99.90;;;;;;5064841;28;20039;-40
2023/08/16 03:20:25;;;;;;;5.20;3.85;;;12.00;99.90;;;;;;5075976;28;20433;-40
2023/08/16 03:22:51;;;;;;;6.70;5.25;;;11.90;99.90;;;;;;5042945;28;20056;-37
2023/08/16 03:25:17;;;;;;;8.18;4.13;;;12.00;99.90;;;;;;5071447;28;20051;-41
2023/08/16 03:27:43;;;;;;;7.65;4.50;;;12.00;99.90;;;;;;5074736;28;20044;-40
2023/08/16 03:30:10;;;;;;;10.20;4.90;;;11.90;99.90;;;;;;5075389;28;20051;-39
2023/08/16 03:32:35;;;;;;;5.70;4.82;;;11.90;99.90;;;;;;5068078;28;20155;-42
2023/08/16 03:35:02;;;;;;;8.70;6.65;;;11.90;99.90;;;;;;5069612;28;20032;-38
2023/08/16 03:37:28;;;;;;;8.75;6.30;;;11.90;99.90;;;;;;5073951;28;20071;-40
2023/08/16 03:39:53;;;;;;;10.05;6.68;;;11.90;99.90;;;;;;5075484;28;20193;-41
2023/08/16 03:42:19;;;;;;;7.13;6.38;;;11.90;99.90;;;;;;5074676;28;20109;-39
2023/08/16 03:44:45;;;;;;;6.22;5.63;;;12.00;99.90;;;;;;5076111;28;20047;-40
2023/08/16 03:47:11;;;;;;;5.95;5.35;;;12.00;99.90;;;;;;5075558;28;20401;-39
2023/08/16 03:49:36;;;;;;;7.38;4.93;;;12.00;99.90;;;;;;5074525;28;20047;-38
2023/08/16 03:52:03;;;;;;;8.05;4.82;;;11.90;99.90;;;;;;5066727;28;20055;-40
2023/08/16 03:54:29;;;;;;;5.68;3.92;;;12.00;99.90;;;;;;5058229;28;20041;-39
2023/08/16 03:56:56;;;;;;;25.88;7.10;;;12.00;99.90;;;;;;5074497;28;20051;-44
2023/08/16 03:59:22;;;;;;;41.10;8.27;;;11.90;99.90;;;;;;5075518;28;20055;-37
2023/08/16 04:01:48;;;;;;;71.78;10.95;;;11.90;99.90;;;;;;5073483;28;20048;-37
2023/08/16 04:04:14;;;;;;;54.70;9.98;;;11.90;99.90;;;;;;5074325;28;20270;-40
2023/08/16 04:06:39;;;;;;;31.67;9.63;;;11.80;99.90;;;;;;5074706;28;20316;-43
2023/08/16 04:09:06;;;;;;;40.35;11.23;;;11.80;99.90;;;;;;5074201;28;20044;-37
2023/08/16 04:11:32;;;;;;;42.83;11.43;;;11.80;99.90;;;;;;5073984;28;20440;-40
2023/08/16 04:13:57;;;;;;;48.63;12.98;;;11.80;99.90;;;;;;5069784;28;20113;-41
2023/08/16 04:16:23;;;;;;;29.45;12.07;;;11.80;99.90;;;;;;5056079;28;20388;-37
2023/08/16 04:18:53;;;;;;;16.05;10.95;;;11.90;99.90;;;;;;5056800;28;20045;-38
2023/08/16 04:21:21;;;;;;;11.63;8.60;;;11.90;99.90;;;;;;5075202;28;20055;-38
2023/08/16 04:23:47;;;;;;;16.73;11.98;;;12.00;99.90;;;;;;5067109;28;20045;-40
2023/08/16 04:26:13;;;;;;;13.48;11.63;;;12.00;99.90;;;;;;5055835;28;20102;-42
2023/08/16 04:28:38;;;;;;;11.75;9.43;;;12.00;99.90;;;;;;5071555;28;20070;-41
2023/08/16 04:31:07;;;;;;;10.60;9.50;;;12.00;99.90;;;;;;5074752;28;20432;-38
2023/08/16 04:33:32;;;;;;;12.75;10.25;;;12.10;99.90;;;;;;5074245;28;20040;-38
2023/08/16 04:35:58;;;;;;;10.55;9.13;;;12.10;99.90;;;;;;5068193;28;20043;-37
2023/08/16 04:38:24;;;;;;;9.40;8.43;;;12.20;99.90;;;;;;5071035;28;20588;-38
2023/08/16 04:40:50;;;;;;;10.65;8.93;;;12.20;99.90;;;;;;5064191;28;20470;-38
2023/08/16 04:43:16;;;;;;;9.93;8.43;;;12.30;99.90;;;;;;5073630;28;20197;-41
2023/08/16 04:45:41;;;;;;;8.55;6.63;;;12.30;99.90;;;;;;5075703;28;20042;-40
2023/08/16 04:48:08;;;;;;;7.32;5.95;;;12.40;99.90;;;;;;5074644;28;20035;-40
2023/08/16 04:50:34;;;;;;;5.10;4.47;;;12.40;99.90;;;;;;5074161;28;20050;-40
2023/08/16 04:53:00;;;;;;;5.95;5.28;;;12.40;99.90;;;;;;5048276;28;20422;-40
2023/08/16 04:55:26;;;;;;;8.02;6.18;;;12.50;99.90;;;;;;5074849;28;20494;-39
2023/08/16 04:57:52;;;;;;;12.85;7.75;;;12.40;99.90;;;;;;5074591;28;20047;-40
2023/08/16 05:00:19;;;;;;;15.40;8.45;;;12.50;99.90;;;;;;5074205;28;20048;-39
2023/08/16 05:02:45;;;;;;;20.13;9.65;;;12.60;99.90;;;;;;5069513;28;20060;-42
2023/08/16 05:05:11;;;;;;;39.83;10.65;;;12.70;99.90;;;;;;5065972;28;20048;-40
2023/08/16 05:07:36;;;;;;;51.70;11.32;;;12.80;99.90;;;;;;5072003;28;20122;-39
2023/08/16 05:10:03;;;;;;;44.35;10.60;;;12.90;99.90;;;;;;5073318;28;20105;-38
2023/08/16 05:12:28;;;;;;;30.98;10.32;;;13.10;99.90;;;;;;5060750;28;20498;-39
2023/08/16 05:14:54;;;;;;;22.55;10.65;;;13.10;99.90;;;;;;5061490;28;20037;-39
2023/08/16 05:17:20;;;;;;;26.92;10.70;;;13.40;99.90;;;;;;5052188;28;20051;-39
2023/08/16 05:19:46;;;;;;;48.22;11.23;;;13.60;99.90;;;;;;5054190;28;20040;-43
2023/08/16 05:22:11;;;;;;;12.25;10.38;;;13.90;99.90;;;;;;5051592;28;20507;-40
2023/08/16 05:24:37;;;;;;;23.83;8.60;;;14.40;99.90;;;;;;5053833;28;20070;-40
2023/08/16 05:27:03;;;;;;;39.00;10.18;;;14.90;99.90;;;;;;5053155;28;20487;-41
2023/08/16 05:29:29;;;;;;;10.63;9.48;;;15.40;99.90;;;;;;5053514;28;20491;-40
2023/08/16 05:31:54;;;;;;;9.50;8.75;;;15.90;99.90;;;;;;5071107;28;20401;-41
2023/08/16 05:34:22;;;;;;;9.82;8.95;;;16.50;99.90;;;;;;5074058;28;20116;-39
2023/08/16 05:36:49;;;;;;;8.80;7.93;;;17.10;99.90;;;;;;5073571;28;20930;-40
2023/08/16 05:39:15;;;;;;;8.93;8.13;;;18.10;99.90;;;;;;5074622;28;20051;-45
2023/08/16 05:41:41;;;;;;;8.23;7.53;;;18.90;99.90;;;;;;5074047;28;20074;-39
2023/08/16 05:44:07;;;;;;;9.73;8.80;;;19.50;99.90;;;;;;5064044;28;20483;-40
2023/08/16 05:46:33;;;;;;;10.05;9.15;;;19.80;99.90;;;;;;5070373;28;20891;-45
2023/08/16 05:49:00;;;;;;;9.30;8.40;;;20.10;99.90;;;;;;5074140;28;20434;-40
2023/08/16 05:51:27;;;;;;;10.10;8.73;;;20.60;99.90;;;;;;5052339;28;20080;-41
2023/08/16 05:53:52;;;;;;;8.13;7.30;;;21.00;99.90;;;;;;5043160;28;20386;-40
2023/08/16 05:56:18;;;;;;;7.90;7.30;;;21.30;99.90;;;;;;5058263;28;20044;-45
2023/08/16 05:58:44;;;;;;;6.68;6.18;;;22.00;99.90;;;;;;5063117;28;21099;-42
2023/08/16 06:01:10;;;;;;;6.28;5.78;;;23.20;99.90;;;;;;5070206;28;20048;-39
2023/08/16 06:03:36;;;;;;;6.22;5.63;;;24.40;99.90;;;;;;5078071;28;20036;-43
2023/08/16 06:06:02;;;;;;;7.95;6.47;;;25.30;99.90;;;;;;5075957;28;20134;-40
2023/08/16 06:08:27;;;;;;;5.22;4.82;;;25.70;99.90;;;;;;5077735;28;20046;-41
2023/08/16 06:10:53;;;;;;;4.57;4.20;;;26.10;99.90;;;;;;5076674;28;20044;-41
2023/08/16 06:13:19;;;;;;;4.63;4.22;;;26.50;99.90;;;;;;5078552;28;20391;-44
2023/08/16 06:15:44;;;;;;;2.88;2.55;;;27.00;99.60;;;;;;5058028;28;20080;-42
2023/08/16 06:18:10;;;;;;;3.85;3.13;;;27.10;99.10;;;;;;5068176;28;20132;-39
2023/08/16 06:20:35;;;;;;;3.90;3.60;;;27.10;99.10;;;;;;5060072;28;20044;-40
2023/08/16 06:23:01;;;;;;;4.50;4.10;;;27.10;98.80;;;;;;5049702;28;20048;-44
2023/08/16 06:25:27;;;;;;;3.70;3.40;;;27.50;98.80;;;;;;5054033;28;20033;-42
2023/08/16 06:27:53;;;;;;;3.38;3.13;;;27.80;97.90;;;;;;5054671;28;20517;-42
2023/08/16 06:30:19;;;;;;;2.83;2.60;;;28.00;97.70;;;;;;5056091;28;20162;-45
2023/08/16 06:32:45;;;;;;;3.05;2.80;;;28.30;97.30;;;;;;5057260;28;20037;-41
2023/08/16 06:35:10;;;;;;;3.92;3.08;;;28.20;97.30;;;;;;5057294;28;20101;-42
2023/08/16 06:37:39;;;;;;;3.50;3.20;;;28.00;97.30;;;;;;5056157;28;20048;-45
2023/08/16 06:40:06;;;;;;;5.05;3.60;;;28.60;97.20;;;;;;5055960;28;20277;-43
2023/08/16 06:42:32;;;;;;;4.50;3.60;;;29.40;97.10;;;;;;5055624;28;20140;-40
2023/08/16 06:44:59;;;;;;;6.05;4.00;;;29.90;96.30;;;;;;5073842;28;20553;-42
2023/08/16 06:47:25;;;;;;;6.70;4.15;;;30.10;95.90;;;;;;5070675;28;20052;-44
2023/08/16 06:49:51;;;;;;;7.43;4.07;;;30.10;95.60;;;;;;5057580;28;20033;-42
2023/08/16 06:52:16;;;;;;;5.93;4.68;;;30.20;95.40;;;;;;5053096;28;20075;-43
2023/08/16 06:54:42;;;;;;;6.55;4.18;;;30.10;95.50;;;;;;5056415;28;20127;-45
2023/08/16 06:57:09;;;;;;;5.88;4.47;;;30.40;95.30;;;;;;5055962;28;20045;-42
2023/08/16 06:59:36;;;;;;;7.82;4.20;;;30.70;95.10;;;;;;5055922;28;20088;-44
2023/08/16 07:02:02;;;;;;;8.07;4.75;;;31.30;94.20;;;;;;5056584;28;20040;-40
2023/08/16 07:04:28;;;;;;;5.88;4.35;;;31.50;93.90;;;;;;5056411;28;20069;-42
2023/08/16 07:06:54;;;;;;;6.90;4.40;;;31.50;93.80;;;;;;5055737;28;20540;-42
2023/08/16 07:09:22;;;;;;;6.90;4.43;;;30.80;93.70;;;;;;5054440;28;20068;-47
2023/08/16 07:11:47;;;;;;;9.13;4.78;;;30.10;93.70;;;;;;5053651;28;20043;-45
2023/08/16 07:14:13;;;;;;;6.45;4.30;;;29.30;94.50;;;;;;5054482;28;20056;-44
2023/08/16 07:16:39;;;;;;;6.70;4.45;;;28.70;95.10;;;;;;5055947;28;20131;-43
2023/08/16 07:19:08;;;;;;;4.90;3.92;;;28.40;95.80;;;;;;5056050;28;20086;-46
2023/08/16 07:21:35;;;;;;;5.25;4.10;;;28.30;95.90;;;;;;5066169;28;20872;-44
2023/08/16 07:24:01;;;;;;;8.05;3.92;;;28.10;95.70;;;;;;5071977;28;20146;-45
2023/08/16 07:26:27;;;;;;;5.78;3.92;;;27.60;96.20;;;;;;5076252;28;20048;-43
2023/08/16 07:28:52;;;;;;;8.80;4.22;;;27.60;96.50;;;;;;5057677;28;20700;-42
2023/08/16 07:31:18;;;;;;;5.97;3.53;;;27.50;96.40;;;;;;5068228;28;20071;-41
2023/08/16 07:33:44;;;;;;;5.03;4.30;;;26.90;97.20;;;;;;5063347;28;20485;-43
2023/08/16 07:36:09;;;;;;;9.07;4.18;;;26.60;97.40;;;;;;5074928;28;20040;-46
2023/08/16 07:38:35;;;;;;;6.28;3.67;;;26.00;98.70;;;;;;5062185;28;20125;-42
2023/08/16 07:41:01;;;;;;;5.10;3.25;;;26.00;98.60;;;;;;5069974;28;20127;-42
2023/08/16 07:43:29;;;;;;;6.70;3.88;;;25.80;98.60;;;;;;5053646;28;20072;-43
2023/08/16 07:45:55;;;;;;;8.70;4.00;;;25.80;99.20;;;;;;5052807;28;20050;-45
2023/08/16 07:48:21;;;;;;;6.50;4.45;;;25.70;99.30;;;;;;5045466;28;20048;-40
2023/08/16 07:50:48;;;;;;;8.80;4.63;;;25.80;99.60;;;;;;5068188;28;20040;-39
2023/08/16 07:53:14;;;;;;;7.00;4.00;;;25.70;99.10;;;;;;5045139;28;20063;-43
2023/08/16 07:55:39;;;;;;;6.10;4.80;;;25.70;99.50;;;;;;5052425;28;20366;-43
2023/08/16 07:58:05;;;;;;;6.38;3.97;;;25.90;99.60;;;;;;5074301;28;20075;-42
2023/08/16 08:00:31;;;;;;;6.65;4.88;;;26.00;99.60;;;;;;5045834;28;20060;-40
2023/08/16 08:02:57;;;;;;;6.20;4.40;;;25.80;98.50;;;;;;5052261;28;20485;-44
2023/08/16 08:05:23;;;;;;;6.53;4.70;;;25.90;99.10;;;;;;5053675;28;20515;-42
2023/08/16 08:07:51;;;;;;;7.85;4.28;;;25.80;99.40;;;;;;5040636;28;20056;-42
2023/08/16 08:10:17;;;;;;;5.65;4.18;;;25.80;99.90;;;;;;5053412;28;20049;-45
2023/08/16 08:12:45;;;;;;;5.40;4.20;;;25.70;99.70;;;;;;5054566;28;20394;-40
2023/08/16 08:15:11;;;;;;;7.63;4.18;;;25.60;99.90;;;;;;5051962;28;20110;-44
2023/08/16 08:17:36;;;;;;;7.00;4.00;;;25.30;99.70;;;;;;5052607;28;20499;-43
2023/08/16 08:20:06;;;;;;;6.65;4.25;;;25.30;99.50;;;;;;5066561;28;20543;-39
2023/08/16 08:22:32;;;;;;;7.93;3.88;;;25.40;99.90;;;;;;5069282;28;20058;-41
2023/08/16 08:24:57;;;;;;;7.47;4.20;;;25.50;99.80;;;;;;5074418;28;20052;-44
2023/08/16 08:27:23;;;;;;;6.45;3.67;;;25.40;99.40;;;;;;5074978;28;20059;-39
2023/08/16 08:29:52;;;;;;;6.35;4.78;;;25.20;99.40;;;;;;5075202;28;20217;-46
2023/08/16 08:32:17;;;;;;;6.28;3.90;;;25.10;99.60;;;;;;5042872;28;20048;-44
2023/08/16 08:34:43;;;;;;;6.55;4.03;;;25.10;99.90;;;;;;5055443;28;20097;-40
2023/08/16 08:37:09;;;;;;;6.18;3.95;;;24.90;99.90;;;;;;5060204;28;20466;-46
2023/08/16 08:39:34;;;;;;;6.53;4.07;;;24.70;99.90;;;;;;5074406;28;20872;-45
2023/08/16 08:42:02;;;;;;;7.32;3.72;;;24.40;99.90;;;;;;5061455;28;20048;-46
2023/08/16 08:44:29;;;;;;;6.65;3.95;;;24.40;99.90;;;;;;5074457;28;20040;-40
2023/08/16 08:46:55;;;;;;;8.35;5.00;;;24.50;99.90;;;;;;5074889;28;20134;-44
2023/08/16 08:49:22;;;;;;;6.00;3.67;;;24.50;99.90;;;;;;5073622;28;20483;-43
2023/08/16 08:51:50;;;;;;;5.47;3.08;;;24.50;99.90;;;;;;5048267;28;20049;-39
2023/08/16 08:54:15;;;;;;;5.00;3.25;;;24.50;99.90;;;;;;5049182;28;20048;-45
2023/08/16 08:56:42;;;;;;;6.68;3.70;;;24.60;99.90;;;;;;5054131;28;20423;-40
2023/08/16 08:59:11;;;;;;;6.20;3.30;;;24.60;99.90;;;;;;5067887;28;20525;-43
2023/08/16 09:01:38;;;;;;;5.93;2.80;;;24.80;99.90;;;;;;5064731;28;20048;-42
2023/08/16 09:04:05;;;;;;;4.68;3.25;;;24.90;99.90;;;;;;5069850;28;20052;-43
2023/08/16 09:06:31;;;;;;;5.28;3.53;;;24.90;99.90;;;;;;5073759;28;20414;-40
2023/08/16 09:08:57;;;;;;;7.20;3.40;;;24.80;99.90;;;;;;5072458;28;20051;-40
2023/08/16 09:11:26;;;;;;;4.63;3.00;;;25.00;99.90;;;;;;5074275;28;20054;-43
2023/08/16 09:13:53;;;;;;;7.72;2.72;;;25.20;99.90;;;;;;5068050;28;20135;-39
2023/08/16 09:16:20;;;;;;;6.10;3.10;;;25.30;99.90;;;;;;5053257;28;20547;-41
2023/08/16 09:18:50;;;;;;;5.80;2.60;;;25.30;99.60;;;;;;5055987;28;20457;-44
2023/08/16 09:21:18;;;;;;;4.13;2.58;;;25.30;99.20;;;;;;5073782;28;20478;-45
2023/08/16 09:23:44;;;;;;;6.10;2.50;;;25.40;99.10;;;;;;5069455;28;20451;-39
2023/08/16 09:26:18;;;;;;;4.03;2.00;;;25.30;98.90;;;;;;5071748;28;20043;-41
2023/08/16 09:28:44;;;;;;;6.18;2.53;;;25.20;99.90;;;;;;5072658;28;20063;-43
2023/08/16 09:31:10;;;;;;;3.47;1.95;;;25.20;99.90;;;;;;5073318;28;20704;-41
2023/08/16 09:33:37;;;;;;;5.03;2.25;;;25.20;99.30;;;;;;5074123;28;20536;-40
2023/08/16 09:36:04;;;;;;;5.03;2.08;;;25.10;99.60;;;;;;5063710;28;20070;-44
2023/08/16 09:38:31;;;;;;;4.68;2.33;;;25.00;98.90;;;;;;5071058;28;20498;-45
2023/08/16 09:40:58;;;;;;;4.40;2.58;;;24.80;98.80;;;;;;5071621;28;20056;-46
2023/08/16 09:43:24;;;;;;;4.20;2.10;;;24.70;98.80;;;;;;5072613;28;20062;-43
2023/08/16 09:45:54;;;;;;;5.75;2.33;;;24.70;98.90;;;;;;5074319;28;20402;-47
2023/08/16 09:48:21;;;;;;;3.55;2.33;;;24.80;99.20;;;;;;5073841;28;20152;-46
2023/08/16 09:50:47;;;;;;;6.80;2.55;;;24.90;98.80;;;;;;5060243;28;20056;-41
2023/08/16 09:53:13;;;;;;;4.25;2.38;;;25.00;98.60;;;;;;5053288;28;20174;-42
2023/08/16 09:55:41;;;;;;;4.70;2.53;;;25.00;98.50;;;;;;5053685;28;20044;-43
2023/08/16 09:58:08;;;;;;;5.97;2.58;;;25.10;99.10;;;;;;5052949;28;20549;-42
2023/08/16 10:00:34;;;;;;;4.05;1.92;;;25.20;98.80;;;;;;5053666;28;20044;-42
2023/08/16 10:03:01;;;;;;;2.65;1.92;;;25.20;98.40;;;;;;5052540;28;20045;-44
2023/08/16 10:05:27;;;;;;;4.93;1.95;;;25.20;98.20;;;;;;5054158;28;20052;-43
2023/08/16 10:07:56;;;;;;;3.25;2.28;;;25.10;98.10;;;;;;5053253;28;20106;-43
2023/08/16 10:10:22;;;;;;;5.28;3.22;;;24.80;99.20;;;;;;5052597;28;20467;-42
2023/08/16 10:12:48;;;;;;;5.32;2.42;;;24.50;99.80;;;;;;5053685;28;20048;-42
2023/08/16 10:15:14;;;;;;;6.50;2.60;;;24.10;99.60;;;;;;5050660;28;20464;-44
2023/08/16 10:17:42;;;;;;;2.83;1.80;;;24.10;99.90;;;;;;5060084;28;20056;-41
2023/08/16 10:20:22;;;;;;;2.95;1.90;;;24.10;99.60;;;;;;5073550;28;20055;-38
2023/08/16 10:22:53;;;;;;;4.65;2.08;;;24.10;99.90;;;;;;5059744;28;20525;-41
2023/08/16 10:25:25;;;;;;;3.72;2.08;;;24.10;99.90;;;;;;5056951;28;20468;-45
2023/08/16 10:27:54;;;;;;;3.83;1.98;;;24.20;99.90;;;;;;5073553;28;20500;-42
2023/08/16 10:30:24;;;;;;;4.30;1.80;;;24.30;99.70;;;;;;5073035;28;20105;-45
2023/08/16 10:33:21;;;;;;;2.38;1.52;;;24.50;99.90;;;;;;5071987;28;20527;-49
2023/08/16 10:35:50;;;;;;;2.47;1.60;;;24.60;99.50;;;;;;5050071;28;20052;-41
2023/08/16 10:38:18;;;;;;;2.67;1.85;;;24.70;99.90;;;;;;5049541;28;20056;-45
2023/08/16 10:40:56;;;;;;;4.70;1.80;;;24.60;99.90;;;;;;5050384;28;20380;-40
2023/08/16 10:43:36;;;;;;;5.60;1.90;;;24.70;99.90;;;;;;5015340;28;20086;-42
2023/08/16 10:46:01;;;;;;;3.63;1.70;;;24.80;99.70;;;;;;5042441;28;20049;-47
2023/08/16 10:48:34;;;;;;;4.90;1.50;;;25.00;98.60;;;;;;5036738;28;20118;-38
2023/08/16 10:51:04;;;;;;;3.85;1.67;;;24.90;98.40;;;;;;5052401;28;20094;-49
2023/08/16 10:53:30;;;;;;;2.30;1.45;;;24.80;98.30;;;;;;5030851;28;20574;-44
2023/08/16 10:55:56;;;;;;;3.33;1.77;;;24.60;98.30;;;;;;5054292;28;20369;-47
2023/08/16 10:58:23;;;;;;;3.17;1.80;;;24.70;99.40;;;;;;5045885;28;20053;-43
2023/08/16 11:00:59;;;;;;;4.45;1.75;;;24.90;99.00;;;;;;5016527;28;20421;-43
2023/08/16 11:03:32;;;;;;;2.95;1.55;;;25.00;98.10;;;;;;5034155;28;20804;-40
2023/08/16 11:06:10;;;;;;;4.75;2.15;;;25.10;97.40;;;;;;5050661;28;20049;-40
2023/08/16 11:08:41;;;;;;;1.60;1.30;;;25.30;99.00;;;;;;5053684;28;20515;-43
2023/08/16 11:11:07;;;;;;;3.53;1.80;;;25.20;97.80;;;;;;5053106;28;20049;-43
2023/08/16 11:13:33;;;;;;;5.57;1.42;;;24.80;97.80;;;;;;5064603;28;20055;-41
2023/08/16 11:15:59;;;;;;;3.70;1.30;;;24.50;98.60;;;;;;5053417;28;20048;-40
2023/08/16 11:18:29;;;;;;;3.30;1.40;;;24.70;98.70;;;;;;5069449;28;20134;-46
2023/08/16 11:20:59;;;;;;;4.65;1.70;;;24.90;98.00;;;;;;5075758;28;20137;-46
2023/08/16 11:23:34;;;;;;;2.15;1.63;;;25.10;98.20;;;;;;5071882;28;20051;-43
2023/08/16 11:26:01;;;;;;;3.95;1.50;;;25.30;98.10;;;;;;5067380;28;20067;-42
2023/08/16 11:28:28;;;;;;;4.22;1.45;;;25.30;97.90;;;;;;5071676;28;20051;-46
2023/08/16 11:31:04;;;;;;;3.80;1.83;;;25.10;97.90;;;;;;5067493;28;20121;-41
2023/08/16 11:33:35;;;;;;;3.90;1.25;;;24.80;97.80;;;;;;5072757;28;20076;-41
2023/08/16 11:36:11;;;;;;;3.75;1.30;;;24.60;98.30;;;;;;5075647;28;20044;-45
2023/08/16 11:38:39;;;;;;;4.10;1.50;;;24.40;98.70;;;;;;5076248;28;20051;-45
2023/08/16 11:41:05;;;;;;;2.35;1.20;;;24.30;98.90;;;;;;5076754;28;20064;-42
2023/08/16 11:43:33;;;;;;;3.05;1.23;;;24.40;98.90;;;;;;5076858;28;20052;-41
2023/08/16 11:45:59;;;;;;;2.00;1.23;;;24.50;99.10;;;;;;5076135;28;20039;-39
2023/08/16 11:48:26;;;;;;;4.07;1.52;;;24.50;98.20;;;;;;5075632;28;20113;-43
2023/08/16 11:50:52;;;;;;;2.15;1.30;;;24.40;98.60;;;;;;5074244;28;20056;-44
2023/08/16 11:53:19;;;;;;;4.78;1.63;;;24.30;98.60;;;;;;5055180;28;20044;-43
2023/08/16 11:56:00;;;;;;;2.45;1.40;;;24.20;98.30;;;;;;5056192;28;20048;-43
2023/08/16 11:58:27;;;;;;;5.15;1.65;;;24.40;98.60;;;;;;5056074;28;20262;-44
2023/08/16 12:00:52;;;;;;;3.13;1.50;;;24.40;98.10;;;;;;5054873;28;20131;-43
2023/08/16 12:03:18;;;;;;;2.95;1.38;;;24.40;97.40;;;;;;5055312;28;20376;-43
2023/08/16 12:05:48;;;;;;;3.15;1.42;;;24.40;97.00;;;;;;5055943;28;20499;-41
2023/08/16 12:08:21;;;;;;;2.75;1.60;;;24.50;97.50;;;;;;5055559;28;20083;-39
2023/08/16 12:10:56;;;;;;;2.67;1.42;;;24.50;97.40;;;;;;5054829;28;20533;-46
2023/08/16 12:13:23;;;;;;;5.63;1.50;;;24.50;98.00;;;;;;5055745;28;20048;-40
2023/08/16 12:15:49;;;;;;;3.15;1.98;;;24.40;98.30;;;;;;5052117;28;20044;-46
2023/08/16 12:18:17;;;;;;;3.97;1.70;;;24.20;98.30;;;;;;5053747;28;20044;-47
2023/08/16 12:20:49;;;;;;;3.38;1.25;;;24.10;99.20;;;;;;5072488;28;20558;-43
2023/08/16 12:23:18;;;;;;;3.63;1.40;;;24.10;99.20;;;;;;5057602;28;20131;-46
2023/08/16 12:25:44;;;;;;;3.78;1.70;;;24.10;98.60;;;;;;5053703;28;20510;-43
2023/08/16 12:28:11;;;;;;;3.03;1.52;;;24.10;97.90;;;;;;5052879;28;20052;-40
2023/08/16 12:30:37;;;;;;;4.72;1.65;;;24.30;97.80;;;;;;5036058;28;20387;-44
2023/08/16 12:33:06;;;;;;;1.92;1.30;;;24.60;97.40;;;;;;5053094;28;20552;-43
2023/08/16 12:35:33;;;;;;;2.33;1.30;;;24.80;97.50;;;;;;5054574;28;20155;-43
2023/08/16 12:37:59;;;;;;;3.60;1.50;;;24.70;96.80;;;;;;5068134;28;20048;-43
2023/08/16 12:40:28;;;;;;;4.68;1.63;;;24.70;97.40;;;;;;5054818;28;20113;-41
2023/08/16 12:42:54;;;;;;;4.35;2.05;;;24.90;97.90;;;;;;5069432;28;20132;-41
2023/08/16 12:45:20;;;;;;;2.67;1.50;;;25.00;97.20;;;;;;5075410;28;20411;-43